createdAt,value
2022-11-27T00:01:08.869Z,66.01
2022-11-27T00:03:35.749Z,66.35
2022-11-27T00:06:02.502Z,66.77
2022-11-27T00:08:29.296Z,66.77
2022-11-27T00:10:56.035Z,66.81
2022-11-27T00:13:22.795Z,66.77
2022-11-27T00:15:49.576Z,66.77
2022-11-27T00:18:16.790Z,66.13
2022-11-27T00:20:43.514Z,66.61
2022-11-27T00:23:10.147Z,67.55
2022-11-27T00:25:36.842Z,68.52
2022-11-27T00:28:03.630Z,67.89
2022-11-27T00:30:30.167Z,67.76
2022-11-27T00:32:56.703Z,67.39
2022-11-27T00:35:23.373Z,67.71
2022-11-27T00:37:50.503Z,68.07
2022-11-27T00:40:17.340Z,67.97
2022-11-27T00:42:44.074Z,67.65
2022-11-27T00:45:10.927Z,67.83
2022-11-27T00:47:37.656Z,68.18
2022-11-27T00:50:04.602Z,67.98
2022-11-27T00:52:31.318Z,68.05
2022-11-27T00:54:57.886Z,68.35
2022-11-27T00:57:26.054Z,68.21
2022-11-27T00:59:52.739Z,68.40
2022-11-27T01:02:19.230Z,68.52
2022-11-27T01:04:47.135Z,68.59
2022-11-27T01:07:14.140Z,68.56
2022-11-27T01:09:40.873Z,68.48
2022-11-27T01:12:08.442Z,67.69
2022-11-27T01:14:35.490Z,67.77
2022-11-27T01:17:02.284Z,68.23
2022-11-27T01:19:28.751Z,68.84
2022-11-27T01:21:55.437Z,69.05
2022-11-27T01:24:21.981Z,68.17
2022-11-27T01:26:48.888Z,68.22
2022-11-27T01:29:15.534Z,68.49
2022-11-27T01:31:42.306Z,68.25
2022-11-27T01:34:21.750Z,68.39
2022-11-27T01:36:48.551Z,68.37
2022-11-27T01:39:17.747Z,68.11
2022-11-27T01:41:45.785Z,68.48
2022-11-27T01:44:24.961Z,68.60
2022-11-27T01:47:02.236Z,69.05
2022-11-27T01:49:36.133Z,68.29
2022-11-27T01:52:06.560Z,69.21
2022-11-27T01:54:40.034Z,69.00
2022-11-27T01:57:14.309Z,69.16
2022-11-27T01:59:41.479Z,68.94
2022-11-27T02:02:08.253Z,69.07
2022-11-27T02:04:35.000Z,69.28
2022-11-27T02:07:01.842Z,69.26
2022-11-27T02:09:29.737Z,69.18
2022-11-27T02:12:01.252Z,69.39
2022-11-27T02:14:35.303Z,69.67
2022-11-27T02:17:01.912Z,69.54
2022-11-27T02:19:38.516Z,69.75
2022-11-27T02:22:28.493Z,69.95
2022-11-27T02:25:13.712Z,69.60
2022-11-27T02:28:13.905Z,69.24
2022-11-27T02:30:51.095Z,68.62
2022-11-27T02:33:20.890Z,69.47
2022-11-27T02:36:03.377Z,69.64
2022-11-27T02:38:34.951Z,69.78
2022-11-27T02:41:25.668Z,69.21
2022-11-27T02:43:53.284Z,69.88
2022-11-27T02:46:20.595Z,70.17
2022-11-27T02:48:52.596Z,70.16
2022-11-27T02:51:35.397Z,70.10
2022-11-27T02:54:04.597Z,70.80
2022-11-27T02:56:32.007Z,70.66
2022-11-27T02:59:05.238Z,70.19
2022-11-27T03:01:39.331Z,70.05
2022-11-27T03:04:10.573Z,70.22
2022-11-27T03:06:41.808Z,70.54
2022-11-27T03:09:19.395Z,70.92
2022-11-27T03:11:46.388Z,70.61
2022-11-27T03:14:24.552Z,70.62
2022-11-27T03:17:20.450Z,70.45
2022-11-27T03:19:52.817Z,70.45
2022-11-27T03:22:20.418Z,70.56
2022-11-27T03:24:50.029Z,70.35
2022-11-27T03:27:24.418Z,69.98
2022-11-27T03:29:54.874Z,70.21
2022-11-27T03:32:22.019Z,70.17
2022-11-27T03:34:48.907Z,70.24
2022-11-27T03:37:15.912Z,70.76
2022-11-27T03:39:42.853Z,70.95
2022-11-27T03:42:45.510Z,70.48
2022-11-27T03:45:34.400Z,70.77
2022-11-27T03:48:13.344Z,70.71
2022-11-27T03:51:34.028Z,70.50
2022-11-27T03:54:16.740Z,71.02
2022-11-27T03:56:48.194Z,71.85
2022-11-27T03:59:36.860Z,71.45
2022-11-27T04:02:03.652Z,70.93
2022-11-27T04:04:30.537Z,70.71
2022-11-27T04:06:57.276Z,70.99
2022-11-27T04:09:25.487Z,71.09
2022-11-27T04:11:52.048Z,71.38
2022-11-27T04:14:18.780Z,71.75
2022-11-27T04:16:45.458Z,72.17
2022-11-27T04:19:12.077Z,71.75
2022-11-27T04:21:38.723Z,72.06
2022-11-27T04:24:05.508Z,71.79
2022-11-27T04:26:31.976Z,72.02
2022-11-27T04:28:58.765Z,72.69
2022-11-27T04:31:25.318Z,72.60
2022-11-27T04:33:52.040Z,72.59
2022-11-27T04:36:18.637Z,72.45
2022-11-27T04:38:45.313Z,71.82
2022-11-27T04:41:12.055Z,72.08
2022-11-27T04:43:38.650Z,72.23
2022-11-27T04:46:05.638Z,71.76
2022-11-27T04:48:32.379Z,71.85
2022-11-27T04:50:59.035Z,72.30
2022-11-27T04:53:25.861Z,72.02
2022-11-27T04:55:52.672Z,72.44
2022-11-27T04:58:19.446Z,73.37
2022-11-27T05:00:46.124Z,72.56
2022-11-27T05:03:13.095Z,72.20
2022-11-27T05:05:39.773Z,72.05
2022-11-27T05:08:06.518Z,71.53
2022-11-27T05:10:33.132Z,71.80
2022-11-27T05:12:59.990Z,71.80
2022-11-27T05:15:26.527Z,71.97
2022-11-27T05:17:53.171Z,72.52
2022-11-27T05:20:19.904Z,72.31
2022-11-27T05:22:48.386Z,72.23
2022-11-27T05:25:15.234Z,71.80
2022-11-27T05:27:42.074Z,71.66
2022-11-27T05:30:09.079Z,71.60
2022-11-27T05:32:35.758Z,71.67
2022-11-27T05:35:02.500Z,71.95
2022-11-27T05:37:29.150Z,72.06
2022-11-27T05:39:55.880Z,72.21
2022-11-27T05:42:22.519Z,72.37
2022-11-27T05:44:51.727Z,71.75
2022-11-27T05:47:22.075Z,71.36
2022-11-27T05:49:48.905Z,71.32
2022-11-27T05:52:15.484Z,71.34
2022-11-27T05:54:42.405Z,72.03
2022-11-27T05:57:09.328Z,72.28
2022-11-27T05:59:36.004Z,72.22
2022-11-27T06:02:02.847Z,71.95
2022-11-27T06:04:29.736Z,72.37
2022-11-27T06:06:56.479Z,72.22
2022-11-27T06:09:23.077Z,72.17
2022-11-27T06:11:49.958Z,72.02
2022-11-27T06:14:16.800Z,72.07
2022-11-27T06:16:43.396Z,72.00
2022-11-27T06:19:10.078Z,71.90
2022-11-27T06:21:37.331Z,71.72
2022-11-27T06:24:04.380Z,71.85
2022-11-27T06:26:32.672Z,72.09
2022-11-27T06:29:00.942Z,72.26
2022-11-27T06:31:30.496Z,72.05
2022-11-27T06:33:57.964Z,71.76
2022-11-27T06:36:29.951Z,71.65
2022-11-27T06:38:56.624Z,71.83
2022-11-27T06:41:25.092Z,72.21
2022-11-27T06:43:51.823Z,71.76
2022-11-27T06:46:20.810Z,71.69
2022-11-27T06:48:49.584Z,72.01
2022-11-27T06:51:19.626Z,72.40
2022-11-27T06:53:46.355Z,72.13
2022-11-27T06:56:15.665Z,72.18
2022-11-27T06:58:43.365Z,71.99
2022-11-27T07:01:15.147Z,72.05
2022-11-27T07:03:42.287Z,72.02
2022-11-27T07:06:11.134Z,71.92
2022-11-27T07:08:39.476Z,72.28
2022-11-27T07:11:09.124Z,72.53
2022-11-27T07:13:35.946Z,72.67
2022-11-27T07:16:05.625Z,72.65
2022-11-27T07:18:36.606Z,72.36
2022-11-27T07:21:03.564Z,72.37
2022-11-27T07:23:31.634Z,72.62
2022-11-27T07:25:59.387Z,72.52
2022-11-27T07:28:26.418Z,72.52
2022-11-27T07:30:57.635Z,72.76
2022-11-27T07:33:25.141Z,72.64
2022-11-27T07:36:02.680Z,72.61
2022-11-27T07:38:30.910Z,71.86
2022-11-27T07:41:03.519Z,71.99
2022-11-27T07:43:31.561Z,72.39
2022-11-27T07:45:58.749Z,72.05
2022-11-27T07:48:25.639Z,71.94
2022-11-27T07:50:52.206Z,71.67
2022-11-27T07:53:19.148Z,71.89
2022-11-27T07:55:45.856Z,72.09
2022-11-27T07:58:12.413Z,71.46
2022-11-27T08:00:39.171Z,71.81
2022-11-27T08:03:06.119Z,71.87
2022-11-27T08:05:36.826Z,71.83
2022-11-27T08:08:04.684Z,71.74
2022-11-27T08:10:35.233Z,71.94
2022-11-27T08:13:09.575Z,71.37
2022-11-27T08:15:37.325Z,71.41
2022-11-27T08:18:04.256Z,70.92
2022-11-27T08:20:30.996Z,70.91
2022-11-27T08:23:02.807Z,70.63
2022-11-27T08:25:30.440Z,69.97
2022-11-27T08:27:57.304Z,69.52
2022-11-27T08:30:24.309Z,68.93
2022-11-27T08:32:51.084Z,68.26
2022-11-27T08:35:21.073Z,67.71
2022-11-27T08:37:48.353Z,67.31
2022-11-27T08:40:15.269Z,66.95
2022-11-27T08:42:41.937Z,67.20
2022-11-27T08:45:09.429Z,67.49
2022-11-27T08:47:36.140Z,67.85
2022-11-27T08:50:05.662Z,67.90
2022-11-27T08:52:32.589Z,67.89
2022-11-27T08:54:59.299Z,67.70
2022-11-27T08:57:26.046Z,67.46
2022-11-27T08:59:52.756Z,66.76
2022-11-27T09:02:19.834Z,65.99
2022-11-27T09:04:46.498Z,65.35
2022-11-27T09:07:15.518Z,64.85
2022-11-27T09:09:42.309Z,64.21
2022-11-27T09:12:09.146Z,63.34
2022-11-27T09:14:35.885Z,62.37
2022-11-27T09:17:02.685Z,61.00
2022-11-27T09:19:29.572Z,60.58
2022-11-27T09:21:56.239Z,60.38
2022-11-27T09:24:22.992Z,59.89
2022-11-27T09:26:49.659Z,58.19
2022-11-27T09:29:16.328Z,57.28
2022-11-27T09:31:43.024Z,57.75
2022-11-27T09:34:09.818Z,57.36
2022-11-27T09:36:36.531Z,56.28
2022-11-27T09:39:03.895Z,56.73
2022-11-27T09:41:33.818Z,55.08
2022-11-27T09:44:06.577Z,55.24
2022-11-27T09:46:37.654Z,54.24
2022-11-27T09:49:09.040Z,53.24
2022-11-27T09:51:53.902Z,53.58
2022-11-27T09:54:27.240Z,50.55
2022-11-27T09:56:55.648Z,51.51
2022-11-27T09:59:25.674Z,50.85
2022-11-27T10:01:52.547Z,49.91
2022-11-27T10:04:21.086Z,50.84
2022-11-27T10:07:06.158Z,49.80
2022-11-27T10:09:45.012Z,49.73
2022-11-27T10:12:17.836Z,50.31
2022-11-27T10:14:47.332Z,50.09
2022-11-27T10:17:21.047Z,48.41
2022-11-27T10:20:13.082Z,48.72
2022-11-27T10:22:50.128Z,48.05
2022-11-27T10:25:20.751Z,48.97
2022-11-27T10:28:09.398Z,49.21
2022-11-27T10:30:44.798Z,47.85
2022-11-27T10:33:19.186Z,47.59
2022-11-27T10:35:48.063Z,47.62
2022-11-27T10:38:20.943Z,47.02
2022-11-27T10:41:34.339Z,45.82
2022-11-27T10:44:21.879Z,46.88
2022-11-27T10:46:49.132Z,46.13
2022-11-27T10:49:15.820Z,46.39
2022-11-27T10:51:42.492Z,46.57
2022-11-27T10:54:12.941Z,44.79
2022-11-27T10:56:52.091Z,45.16
2022-11-27T10:59:22.381Z,43.57
2022-11-27T11:01:50.695Z,44.32
2022-11-27T11:04:37.417Z,43.87
2022-11-27T11:07:04.592Z,44.10
2022-11-27T11:09:33.063Z,43.06
2022-11-27T11:12:17.589Z,42.88
2022-11-27T11:15:01.803Z,41.76
2022-11-27T11:17:37.781Z,41.42
2022-11-27T11:20:33.981Z,42.01
2022-11-27T11:23:00.572Z,41.37
2022-11-27T11:25:27.300Z,41.78
2022-11-27T11:27:54.038Z,40.68
2022-11-27T11:30:23.670Z,39.88
2022-11-27T11:32:51.136Z,38.89
2022-11-27T11:35:27.984Z,39.31
2022-11-27T11:37:55.223Z,36.95
2022-11-27T11:40:25.182Z,36.61
2022-11-27T11:42:58.959Z,35.59
2022-11-27T11:45:30.028Z,36.09
2022-11-27T11:48:15.755Z,34.00
2022-11-27T11:50:49.988Z,33.28
2022-11-27T11:53:32.365Z,33.45
2022-11-27T11:56:14.046Z,32.39
2022-11-27T11:59:03.104Z,31.92
2022-11-27T12:01:48.031Z,31.17
2022-11-27T12:04:49.380Z,32.20
2022-11-27T12:07:41.007Z,32.31
2022-11-27T12:10:16.814Z,30.53
2022-11-27T12:12:46.312Z,31.09
2022-11-27T12:15:34.446Z,31.36
2022-11-27T12:18:02.958Z,29.26
2022-11-27T12:20:57.766Z,29.71
2022-11-27T12:23:32.015Z,29.64
2022-11-27T12:26:17.729Z,29.23
2022-11-27T12:29:21.057Z,28.63
2022-11-27T12:31:52.248Z,29.24
2022-11-27T12:34:31.259Z,29.64
2022-11-27T12:37:42.580Z,29.73
2022-11-27T12:41:09.128Z,30.18
2022-11-27T12:43:39.927Z,30.55
2022-11-27T12:46:15.005Z,29.74
2022-11-27T12:48:48.116Z,29.81
2022-11-27T12:51:22.622Z,29.70
2022-11-27T12:53:54.120Z,29.78
2022-11-27T12:56:48.556Z,29.68
2022-11-27T12:59:27.267Z,29.98
2022-11-27T13:02:07.578Z,30.15
2022-11-27T13:05:23.490Z,29.52
2022-11-27T13:07:54.676Z,29.18
2022-11-27T13:10:24.482Z,29.13
2022-11-27T13:13:01.117Z,28.94
2022-11-27T13:15:32.101Z,29.00
2022-11-27T13:18:31.595Z,28.18
2022-11-27T13:21:01.331Z,28.34
2022-11-27T13:23:34.904Z,28.67
2022-11-27T13:26:05.252Z,28.98
2022-11-27T13:28:42.057Z,29.05
2022-11-27T13:31:15.200Z,29.14
2022-11-27T13:33:44.425Z,29.13
2022-11-27T13:36:40.978Z,28.98
2022-11-27T13:39:24.168Z,28.83
2022-11-27T13:42:19.379Z,29.14
2022-11-27T13:44:54.235Z,29.09
2022-11-27T13:47:23.162Z,28.95
2022-11-27T13:50:02.424Z,29.07
2022-11-27T13:52:30.315Z,29.44
2022-11-27T13:55:01.998Z,29.70
2022-11-27T13:57:30.299Z,30.17
2022-11-27T14:00:12.324Z,30.95
2022-11-27T14:02:48.417Z,31.56
2022-11-27T14:05:19.019Z,32.64
2022-11-27T14:07:51.055Z,33.43
2022-11-27T14:10:21.478Z,34.13
2022-11-27T14:13:07.881Z,34.71
2022-11-27T14:15:36.799Z,35.08
2022-11-27T14:18:21.286Z,35.73
2022-11-27T14:20:50.924Z,35.86
2022-11-27T14:23:31.782Z,36.20
2022-11-27T14:26:02.511Z,36.52
2022-11-27T14:28:31.158Z,36.82
2022-11-27T14:31:04.203Z,37.30
2022-11-27T14:33:59.664Z,37.55
2022-11-27T14:36:31.968Z,38.11
2022-11-27T14:38:59.214Z,38.29
2022-11-27T14:41:27.024Z,38.57
2022-11-27T14:44:05.181Z,38.61
2022-11-27T14:46:34.121Z,38.80
2022-11-27T14:49:01.246Z,39.25
2022-11-27T14:51:36.243Z,39.63
2022-11-27T14:54:05.592Z,40.23
2022-11-27T14:56:43.048Z,40.50
2022-11-27T14:59:22.323Z,40.71
2022-11-27T15:02:29.347Z,40.77
2022-11-27T15:05:05.655Z,41.22
2022-11-27T15:07:41.937Z,41.43
2022-11-27T15:10:29.811Z,42.59
2022-11-27T15:12:56.969Z,42.50
2022-11-27T15:15:29.401Z,42.95
2022-11-27T15:17:57.233Z,42.77
2022-11-27T15:20:33.695Z,43.34
2022-11-27T15:23:00.804Z,43.65
2022-11-27T15:25:29.487Z,45.56
2022-11-27T15:27:56.210Z,45.26
2022-11-27T15:30:23.518Z,46.05
2022-11-27T15:32:51.892Z,45.98
2022-11-27T15:35:27.590Z,48.51
2022-11-27T15:37:57.956Z,48.34
2022-11-27T15:40:30.516Z,48.02
2022-11-27T15:42:57.166Z,49.32
2022-11-27T15:45:27.601Z,49.86
2022-11-27T15:47:59.528Z,49.53
2022-11-27T15:50:26.726Z,51.07
2022-11-27T15:52:53.454Z,49.93
2022-11-27T15:55:20.156Z,52.04
2022-11-27T15:57:46.875Z,51.39
2022-11-27T16:00:14.206Z,51.39
2022-11-27T16:02:41.022Z,53.34
2022-11-27T16:05:08.422Z,52.30
2022-11-27T16:07:35.342Z,54.33
2022-11-27T16:10:02.085Z,52.79
2022-11-27T16:12:28.719Z,54.16
2022-11-27T16:14:55.298Z,54.81
2022-11-27T16:17:21.897Z,55.01
2022-11-27T16:19:48.577Z,53.52
2022-11-27T16:22:15.205Z,53.82
2022-11-27T16:24:42.132Z,55.06
2022-11-27T16:27:09.073Z,55.66
2022-11-27T16:29:36.033Z,56.16
2022-11-27T16:32:02.974Z,57.79
2022-11-27T16:34:29.953Z,57.02
2022-11-27T16:36:56.628Z,56.85
2022-11-27T16:39:24.176Z,57.95
2022-11-27T16:41:52.722Z,58.20
2022-11-27T16:44:21.224Z,58.32
2022-11-27T16:46:50.143Z,57.41
2022-11-27T16:49:17.891Z,58.38
2022-11-27T16:51:44.627Z,58.52
2022-11-27T16:54:13.340Z,58.80
2022-11-27T16:56:42.051Z,58.98
2022-11-27T16:59:10.699Z,59.09
2022-11-27T17:01:41.092Z,59.98
2022-11-27T17:04:11.193Z,59.86
2022-11-27T17:06:39.239Z,60.25
2022-11-27T17:09:07.679Z,60.08
2022-11-27T17:11:36.007Z,60.18
2022-11-27T17:14:06.326Z,59.79
2022-11-27T17:16:33.999Z,60.60
2022-11-27T17:19:00.945Z,60.25
2022-11-27T17:21:30.621Z,60.40
2022-11-27T17:24:01.012Z,62.72
2022-11-27T17:26:32.330Z,62.94
2022-11-27T17:29:00.121Z,62.45
2022-11-27T17:31:32.715Z,63.15
2022-11-27T17:34:00.292Z,62.28
2022-11-27T17:36:33.757Z,62.72
2022-11-27T17:39:05.454Z,65.11
2022-11-27T17:41:32.316Z,63.56
2022-11-27T17:43:59.146Z,62.99
2022-11-27T17:46:27.887Z,63.73
2022-11-27T17:48:55.613Z,63.43
2022-11-27T17:51:22.581Z,64.16
2022-11-27T17:53:49.330Z,63.31
2022-11-27T17:56:18.449Z,64.07
2022-11-27T17:58:47.189Z,64.03
2022-11-27T18:01:19.799Z,64.47
2022-11-27T18:03:48.450Z,64.73
2022-11-27T18:06:16.884Z,64.14
2022-11-27T18:08:44.152Z,63.96
2022-11-27T18:11:14.023Z,64.20
2022-11-27T18:13:40.996Z,64.01
2022-11-27T18:16:12.421Z,63.22
2022-11-27T18:18:40.072Z,63.82
2022-11-27T18:21:08.667Z,64.73
2022-11-27T18:23:36.340Z,64.36
2022-11-27T18:26:07.727Z,64.84
2022-11-27T18:28:34.824Z,65.07
2022-11-27T18:31:09.595Z,64.43
2022-11-27T18:33:37.188Z,65.04
2022-11-27T18:36:05.462Z,64.98
2022-11-27T18:38:33.546Z,65.02
2022-11-27T18:41:20.676Z,64.39
2022-11-27T18:43:47.935Z,64.90
2022-11-27T18:46:16.301Z,64.30
2022-11-27T18:48:48.822Z,64.93
2022-11-27T18:51:24.161Z,65.19
2022-11-27T18:53:51.929Z,66.08
2022-11-27T18:56:21.446Z,65.99
2022-11-27T18:58:48.697Z,65.89
2022-11-27T19:01:23.366Z,65.55
2022-11-27T19:03:50.640Z,66.12
2022-11-27T19:06:18.967Z,65.22
2022-11-27T19:08:46.134Z,65.92
2022-11-27T19:11:21.822Z,66.70
2022-11-27T19:14:20.892Z,66.35
2022-11-27T19:16:50.877Z,64.97
2022-11-27T19:22:09.820Z,65.13
2022-11-27T19:24:37.414Z,65.56
2022-11-27T19:27:04.100Z,65.97
2022-11-27T19:29:30.702Z,66.32
2022-11-27T19:31:59.005Z,66.69
2022-11-27T19:34:26.168Z,66.33
2022-11-27T19:36:53.197Z,66.78
2022-11-27T19:39:20.116Z,66.64
2022-11-27T19:41:48.479Z,66.83
2022-11-27T19:44:17.166Z,67.03
2022-11-27T19:46:45.104Z,66.22
2022-11-27T19:49:15.317Z,67.02
2022-11-27T19:51:42.159Z,67.31
2022-11-27T19:54:11.461Z,65.82
2022-11-27T19:56:40.321Z,67.19
2022-11-27T19:59:07.789Z,67.16
2022-11-27T20:01:34.701Z,66.77
2022-11-27T20:04:03.358Z,67.71
2022-11-27T20:06:30.077Z,67.27
2022-11-27T20:09:00.896Z,67.57
2022-11-27T20:11:34.089Z,68.02
2022-11-27T20:14:01.705Z,67.89
2022-11-27T20:16:28.592Z,67.30
2022-11-27T20:18:55.810Z,66.72
2022-11-27T20:21:24.814Z,66.90
2022-11-27T20:23:52.531Z,66.95
2022-11-27T20:26:22.258Z,67.43
2022-11-27T20:28:50.300Z,67.79
2022-11-27T20:31:24.342Z,68.01
2022-11-27T20:33:52.486Z,68.53
2022-11-27T20:36:20.719Z,68.33
2022-11-27T20:38:48.375Z,68.06
2022-11-27T20:41:17.481Z,68.54
2022-11-27T20:43:44.925Z,68.69
2022-11-27T20:46:13.478Z,68.59
2022-11-27T20:48:40.389Z,69.19
2022-11-27T20:51:11.278Z,68.34
2022-11-27T20:53:38.062Z,68.35
2022-11-27T20:56:06.415Z,68.14
2022-11-27T20:58:38.057Z,68.48
2022-11-27T21:01:19.905Z,68.99
2022-11-27T21:03:48.561Z,69.62
2022-11-27T21:06:17.313Z,68.55
2022-11-27T21:08:44.045Z,70.00
2022-11-27T21:11:13.731Z,69.94
2022-11-27T21:13:41.241Z,70.80
2022-11-27T21:16:14.091Z,70.24
2022-11-27T21:18:40.991Z,70.67
2022-11-27T21:21:11.987Z,70.11
2022-11-27T21:23:42.448Z,69.07
2022-11-27T21:26:11.146Z,69.15
2022-11-27T21:28:38.917Z,69.38
2022-11-27T21:31:09.724Z,69.54
2022-11-27T21:33:37.464Z,69.83
2022-11-27T21:36:05.428Z,69.49
2022-11-27T21:38:32.336Z,69.08
2022-11-27T21:40:59.103Z,72.06
2022-11-27T21:43:26.003Z,73.31
2022-11-27T21:45:52.909Z,74.46
2022-11-27T21:48:20.592Z,76.07
2022-11-27T21:50:47.340Z,75.23
2022-11-27T21:53:14.025Z,73.14
2022-11-27T21:55:44.208Z,72.77
2022-11-27T21:58:11.736Z,71.43
2022-11-27T22:00:38.722Z,71.42
2022-11-27T22:03:05.341Z,71.52
2022-11-27T22:05:32.037Z,72.29
2022-11-27T22:07:58.902Z,72.49
2022-11-27T22:10:25.630Z,71.43
2022-11-27T22:12:52.520Z,70.76
2022-11-27T22:15:19.383Z,71.05
2022-11-27T22:17:46.145Z,71.03
2022-11-27T22:20:13.817Z,70.78
2022-11-27T22:22:40.535Z,70.40
2022-11-27T22:25:08.142Z,70.50
2022-11-27T22:27:34.949Z,71.16
2022-11-27T22:30:01.555Z,70.46
2022-11-27T22:32:28.506Z,70.95
2022-11-27T22:34:55.087Z,70.40
2022-11-27T22:37:21.754Z,70.71
2022-11-27T22:39:48.780Z,71.02
2022-11-27T22:42:15.306Z,70.33
2022-11-27T22:44:42.304Z,71.12
2022-11-27T22:47:09.597Z,71.43
2022-11-27T22:49:36.259Z,70.86
2022-11-27T22:52:03.212Z,70.51
2022-11-27T22:54:29.928Z,71.26
2022-11-27T22:56:57.579Z,70.29
2022-11-27T22:59:34.192Z,70.54
2022-11-27T23:02:03.280Z,71.59
2022-11-27T23:04:30.051Z,71.73
2022-11-27T23:06:57.428Z,70.85
2022-11-27T23:09:24.130Z,71.40
2022-11-27T23:11:50.923Z,71.68
2022-11-27T23:14:21.406Z,71.55
2022-11-27T23:16:48.194Z,71.71
2022-11-27T23:19:14.922Z,71.74
2022-11-27T23:21:42.062Z,71.84
2022-11-27T23:24:12.947Z,72.46
2022-11-27T23:26:39.668Z,72.30
2022-11-27T23:29:06.332Z,72.05
2022-11-27T23:31:35.394Z,71.87
2022-11-27T23:34:05.857Z,71.78
2022-11-27T23:36:32.787Z,72.31
2022-11-27T23:39:01.064Z,71.95
2022-11-27T23:41:28.223Z,72.50
2022-11-27T23:43:55.552Z,72.59
2022-11-27T23:46:26.344Z,72.59
2022-11-27T23:48:57.385Z,72.54
2022-11-27T23:51:26.457Z,72.74
2022-11-27T23:53:53.829Z,72.84
2022-11-27T23:56:23.155Z,73.64
2022-11-27T23:58:50.283Z,73.01
